createdAt,value
2023-04-25T00:01:28.348Z,99176.63
2023-04-25T00:04:31.761Z,99190.13
2023-04-25T00:07:35.829Z,99185.78
2023-04-25T00:10:38.717Z,99175.38
2023-04-25T00:13:42.817Z,99183.91
2023-04-25T00:16:46.256Z,99165.41
2023-04-25T00:19:48.520Z,99172.31
2023-04-25T00:22:51.314Z,99172.16
2023-04-25T00:25:54.170Z,99158.34
2023-04-25T00:28:56.823Z,99133.00
2023-04-25T00:31:59.782Z,99159.09
2023-04-25T00:35:02.815Z,99145.28
2023-04-25T00:38:05.658Z,99134.22
2023-04-25T00:41:09.144Z,99157.13
2023-04-25T00:44:13.515Z,99150.28
2023-04-25T00:47:17.644Z,99162.41
2023-04-25T00:50:21.272Z,99152.94
2023-04-25T00:53:26.099Z,99143.25
2023-04-25T00:56:28.487Z,99143.16
2023-04-25T00:59:32.368Z,99133.00
2023-04-25T01:02:37.262Z,99140.09
2023-04-25T01:05:43.539Z,99127.22
2023-04-25T01:08:45.853Z,99143.50
2023-04-25T01:11:49.687Z,99139.41
2023-04-25T01:14:52.622Z,99134.28
2023-04-25T01:17:59.123Z,99140.94
2023-04-25T01:21:13.024Z,99141.78
2023-04-25T01:24:17.763Z,99127.28
2023-04-25T01:27:21.858Z,99143.41
2023-04-25T01:30:24.475Z,99133.75
2023-04-25T01:33:27.416Z,99138.13
2023-04-25T01:36:31.154Z,99125.91
2023-04-25T01:39:34.711Z,99128.66
2023-04-25T01:42:40.542Z,99137.19
2023-04-25T01:45:43.607Z,99111.44
2023-04-25T01:48:47.909Z,99116.56
2023-04-25T01:51:51.385Z,99125.41
2023-04-25T01:54:55.353Z,99111.78
2023-04-25T01:57:58.882Z,99109.91
2023-04-25T02:01:12.497Z,99104.09
2023-04-25T02:04:22.168Z,99098.13
2023-04-25T02:07:25.176Z,99112.91
2023-04-25T02:10:30.045Z,99101.44
2023-04-25T02:13:49.209Z,99108.47
2023-04-25T02:17:14.215Z,99094.16
2023-04-25T02:20:19.361Z,99108.84
2023-04-25T02:23:22.840Z,99090.09
2023-04-25T02:26:25.768Z,99114.97
2023-04-25T02:29:28.639Z,99105.41
2023-04-25T02:32:31.691Z,99094.31
2023-04-25T02:35:35.040Z,99101.16
2023-04-25T02:38:37.333Z,99089.66
2023-04-25T02:41:40.959Z,99093.91
2023-04-25T02:44:43.523Z,99091.44
2023-04-25T02:47:46.394Z,99087.97
2023-04-25T02:50:49.826Z,99090.94
2023-04-25T02:53:53.022Z,99103.03
2023-04-25T02:56:55.070Z,99090.75
2023-04-25T03:00:02.019Z,99089.22
2023-04-25T03:03:04.622Z,99076.28
2023-04-25T03:06:07.607Z,99073.38
2023-04-25T03:09:09.913Z,99075.69
2023-04-25T03:12:12.787Z,99077.41
2023-04-25T03:15:15.101Z,99074.91
2023-04-25T03:18:17.730Z,99073.38
2023-04-25T03:21:21.497Z,99072.69
2023-04-25T03:24:24.427Z,99072.84
2023-04-25T03:27:28.631Z,99075.41
2023-04-25T03:30:30.879Z,99071.16
2023-04-25T03:33:34.332Z,99061.78
2023-04-25T03:36:36.737Z,99079.16
2023-04-25T03:39:40.053Z,99060.41
2023-04-25T03:42:44.902Z,99073.88
2023-04-25T03:45:48.423Z,99054.97
2023-04-25T03:48:52.897Z,99062.56
2023-04-25T03:52:01.706Z,99066.97
2023-04-25T03:55:12.428Z,99058.53
2023-04-25T03:58:15.389Z,99052.06
2023-04-25T04:01:18.490Z,99059.81
2023-04-25T04:04:22.645Z,99067.41
2023-04-25T04:07:25.387Z,99063.97
2023-04-25T04:10:31.871Z,99043.38
2023-04-25T04:13:35.877Z,99067.22
2023-04-25T04:16:38.164Z,99076.69
2023-04-25T04:19:41.221Z,99069.94
2023-04-25T04:22:51.544Z,99070.66
2023-04-25T04:25:57.404Z,99063.72
2023-04-25T04:29:22.040Z,99074.22
2023-04-25T04:32:36.149Z,99063.97
2023-04-25T04:35:39.661Z,99059.66
2023-04-25T04:38:43.913Z,99051.97
2023-04-25T04:41:55.505Z,99065.53
2023-04-25T04:45:14.470Z,99061.09
2023-04-25T04:48:37.992Z,99062.66
2023-04-25T04:52:08.807Z,99064.09
2023-04-25T04:55:22.505Z,99064.84
2023-04-25T04:58:39.842Z,99057.72
2023-04-25T05:02:00.576Z,99054.88
2023-04-25T05:05:23.820Z,99060.97
2023-04-25T05:08:40.068Z,99047.25
2023-04-25T05:11:44.683Z,99044.75
2023-04-25T05:14:57.245Z,99050.88
2023-04-25T05:18:18.772Z,99043.72
2023-04-25T05:21:33.472Z,99045.59
2023-04-25T05:24:56.870Z,99044.69
2023-04-25T05:28:17.628Z,99048.00
2023-04-25T05:31:50.353Z,99036.06
2023-04-25T05:34:54.255Z,99035.56
2023-04-25T05:38:00.980Z,99039.47
2023-04-25T05:41:31.905Z,99001.16
2023-04-25T05:44:54.675Z,99042.75
2023-04-25T05:48:11.991Z,99033.03
2023-04-25T05:51:37.482Z,99049.16
2023-04-25T05:55:01.346Z,99031.59
2023-04-25T05:58:11.184Z,99012.81
2023-04-25T06:01:16.146Z,99023.66
2023-04-25T06:04:20.554Z,99033.22
2023-04-25T06:07:23.223Z,99040.88
2023-04-25T06:10:30.825Z,99006.69
2023-04-25T06:13:33.010Z,99037.53
2023-04-25T06:16:36.260Z,99022.06
2023-04-25T06:19:38.178Z,99046.16
2023-04-25T06:22:40.501Z,99029.78
2023-04-25T06:25:43.906Z,99008.41
2023-04-25T06:28:45.890Z,99039.00
2023-04-25T06:31:48.510Z,99026.38
2023-04-25T06:34:50.600Z,99032.34
2023-04-25T06:37:54.987Z,99031.66
2023-04-25T06:41:00.774Z,99046.16
2023-04-25T06:44:09.030Z,99026.38
2023-04-25T06:47:16.130Z,99027.81
2023-04-25T06:50:19.827Z,99023.81
2023-04-25T06:53:22.130Z,99018.34
2023-04-25T06:56:32.653Z,99010.75
2023-04-25T06:59:40.604Z,99026.13
2023-04-25T07:02:45.016Z,99021.50
2023-04-25T07:05:47.960Z,99003.97
2023-04-25T07:08:50.000Z,99000.88
2023-04-25T07:11:53.057Z,99015.16
2023-04-25T07:14:55.104Z,99006.34
2023-04-25T07:17:56.974Z,99003.44
2023-04-25T07:20:58.844Z,99013.66
2023-04-25T07:24:01.165Z,99014.81
2023-04-25T07:27:07.899Z,99000.75
2023-04-25T07:30:32.889Z,98996.69
2023-04-25T07:33:38.866Z,98973.91
2023-04-25T07:36:41.183Z,99010.94
2023-04-25T07:39:43.332Z,99007.22
2023-04-25T07:42:46.069Z,98999.94
2023-04-25T07:45:52.232Z,98989.72
2023-04-25T07:48:55.880Z,99012.97
2023-04-25T07:51:57.900Z,99010.69
2023-04-25T07:55:01.464Z,98999.47
2023-04-25T07:58:14.936Z,99021.78
2023-04-25T08:01:22.683Z,99012.31
2023-04-25T08:04:30.012Z,99006.44
2023-04-25T08:07:40.060Z,99011.38
2023-04-25T08:10:43.006Z,98997.22
2023-04-25T08:13:44.971Z,99002.19
2023-04-25T08:16:47.233Z,99003.69
2023-04-25T08:19:49.625Z,98987.81
2023-04-25T08:22:59.175Z,98998.88
2023-04-25T08:26:21.334Z,98999.84
2023-04-25T08:29:26.809Z,98969.69
2023-04-25T08:32:30.772Z,99010.81
2023-04-25T08:35:51.743Z,98997.00
2023-04-25T08:38:55.620Z,99001.44
2023-04-25T08:41:58.083Z,99001.44
2023-04-25T08:45:03.620Z,99007.50
2023-04-25T08:48:16.892Z,98987.84
2023-04-25T08:51:26.502Z,99007.97
2023-04-25T08:54:35.789Z,99012.41
2023-04-25T08:57:43.910Z,99012.50
2023-04-25T09:00:50.911Z,99015.31
2023-04-25T09:03:55.194Z,99018.97
2023-04-25T09:06:57.287Z,99005.94
2023-04-25T09:10:02.889Z,99022.19
2023-04-25T09:13:09.871Z,99036.06
2023-04-25T09:16:30.574Z,99039.56
2023-04-25T09:19:57.974Z,99031.22
2023-04-25T09:23:08.001Z,99005.78
2023-04-25T09:26:20.458Z,99035.97
2023-04-25T09:29:30.384Z,99042.09
2023-04-25T09:32:33.362Z,99043.28
2023-04-25T09:35:43.948Z,99042.50
2023-04-25T09:38:52.730Z,99047.69
2023-04-25T09:42:06.803Z,99041.66
2023-04-25T09:45:14.386Z,99031.63
2023-04-25T09:48:21.355Z,99036.06
2023-04-25T09:51:27.699Z,99022.09
2023-04-25T09:54:30.623Z,99017.84
2023-04-25T09:57:49.487Z,99028.75
2023-04-25T10:00:53.199Z,99039.13
2023-04-25T10:04:08.387Z,99026.88
2023-04-25T10:07:32.472Z,99026.03
2023-04-25T10:10:37.805Z,99034.56
2023-04-25T10:13:39.658Z,99023.47
2023-04-25T10:16:42.729Z,99019.19
2023-04-25T10:19:44.656Z,98987.19
2023-04-25T10:22:49.136Z,99011.72
2023-04-25T10:25:53.160Z,99010.19
2023-04-25T10:29:03.531Z,99034.91
2023-04-25T10:32:05.806Z,99028.31
2023-04-25T10:35:16.474Z,99017.84
2023-04-25T10:38:19.524Z,99026.03
2023-04-25T10:41:23.807Z,99004.66
2023-04-25T10:44:30.512Z,99022.00
2023-04-25T10:47:37.346Z,99028.84
2023-04-25T10:50:40.805Z,99033.53
2023-04-25T10:53:48.343Z,99019.53
2023-04-25T10:56:51.666Z,98997.47
2023-04-25T10:59:53.734Z,99029.00
2023-04-25T11:03:00.694Z,99017.69
2023-04-25T11:06:03.894Z,99032.25
2023-04-25T11:09:14.466Z,98983.50
2023-04-25T11:12:18.105Z,99023.88
2023-04-25T11:15:20.577Z,98975.56
2023-04-25T11:18:22.462Z,99024.81
2023-04-25T11:21:24.824Z,99016.28
2023-04-25T11:24:36.990Z,99020.91
2023-04-25T11:27:52.369Z,99039.66
2023-04-25T11:30:54.243Z,99029.75
2023-04-25T11:33:58.399Z,99024.53
2023-04-25T11:37:01.620Z,99037.41
2023-04-25T11:40:08.286Z,98998.16
2023-04-25T11:43:11.771Z,99010.91
2023-04-25T11:46:16.245Z,99018.00
2023-04-25T11:49:20.916Z,98999.59
2023-04-25T11:52:22.675Z,99023.53
2023-04-25T11:55:24.507Z,99001.78
2023-04-25T11:58:29.513Z,99025.06
2023-04-25T12:01:36.517Z,99027.34
2023-04-25T12:04:39.460Z,99034.50
2023-04-25T12:07:42.260Z,99031.75
2023-04-25T12:10:46.404Z,99031.94
2023-04-25T12:14:07.003Z,99026.66
2023-04-25T12:17:17.151Z,99001.56
2023-04-25T12:20:21.479Z,98994.75
2023-04-25T12:23:28.614Z,99016.22
2023-04-25T12:27:07.141Z,99013.50
2023-04-25T12:30:10.197Z,99010.25
2023-04-25T12:33:12.255Z,99001.13
2023-04-25T12:36:14.645Z,99027.84
2023-04-25T12:39:29.564Z,99016.69
2023-04-25T12:42:33.464Z,99026.53
2023-04-25T12:45:35.299Z,99013.44
2023-04-25T12:48:37.191Z,99018.94
2023-04-25T12:51:39.037Z,99015.25
2023-04-25T12:54:41.574Z,99025.78
2023-04-25T12:57:43.378Z,99017.81
2023-04-25T13:00:46.916Z,99018.03
2023-04-25T13:03:49.962Z,99035.63
2023-04-25T13:06:51.911Z,99021.78
2023-04-25T13:09:53.651Z,99026.84
2023-04-25T13:12:55.538Z,99015.63
2023-04-25T13:15:58.763Z,99013.66
2023-04-25T13:19:00.640Z,99025.84
2023-04-25T13:22:05.280Z,99028.56
2023-04-25T13:25:09.190Z,98997.88
2023-04-25T13:28:11.041Z,99034.06
2023-04-25T13:31:12.923Z,99041.00
2023-04-25T13:34:14.848Z,99016.88
2023-04-25T13:37:16.798Z,98909.44
2023-04-25T13:40:18.711Z,99000.00
2023-04-25T13:43:24.049Z,99003.47
2023-04-25T13:46:44.974Z,99021.53
2023-04-25T13:49:47.648Z,98984.50
2023-04-25T13:52:50.437Z,99021.00
2023-04-25T13:55:53.875Z,99007.50
2023-04-25T13:58:56.175Z,99013.47
2023-04-25T14:01:59.992Z,98994.59
2023-04-25T14:05:03.633Z,99013.09
2023-04-25T14:08:27.862Z,98976.47
2023-04-25T14:11:29.740Z,98938.94
2023-04-25T14:14:31.518Z,99018.19
2023-04-25T14:17:33.447Z,99020.19
2023-04-25T14:20:35.577Z,99024.56
2023-04-25T14:23:37.394Z,99025.97
2023-04-25T14:26:40.632Z,99040.53
2023-04-25T14:29:42.552Z,99029.59
2023-04-25T14:32:45.643Z,99046.09
2023-04-25T14:35:47.600Z,99029.44
2023-04-25T14:38:49.389Z,99018.47
2023-04-25T14:41:51.431Z,99036.78
2023-04-25T14:44:53.218Z,99049.88
2023-04-25T14:47:56.785Z,99055.22
2023-04-25T14:50:58.873Z,99043.72
2023-04-25T14:54:00.679Z,99053.97
2023-04-25T14:57:03.942Z,99056.06
2023-04-25T15:00:09.520Z,99051.84
2023-04-25T15:03:14.054Z,99053.09
2023-04-25T15:06:15.995Z,99058.84
2023-04-25T15:09:19.362Z,99062.50
2023-04-25T15:12:21.851Z,99070.69
2023-04-25T15:15:26.915Z,99060.16
2023-04-25T15:18:29.231Z,99061.31
2023-04-25T15:21:31.990Z,99072.69
2023-04-25T15:24:35.682Z,99062.56
2023-04-25T15:27:42.151Z,99082.50
2023-04-25T15:30:44.915Z,99087.19
2023-04-25T15:33:48.547Z,99078.75
2023-04-25T15:36:50.468Z,99072.97
2023-04-25T15:40:12.214Z,99086.97
2023-04-25T15:43:16.390Z,99054.84
2023-04-25T15:46:18.873Z,99081.59
2023-04-25T15:49:21.913Z,99074.91
2023-04-25T15:52:23.785Z,99065.78
2023-04-25T15:55:27.112Z,99064.13
2023-04-25T15:58:28.946Z,99078.06
2023-04-25T16:01:31.521Z,99066.50
2023-04-25T16:04:35.662Z,99085.25
2023-04-25T16:07:39.403Z,99089.59
2023-04-25T16:10:42.569Z,99086.19
2023-04-25T16:13:44.858Z,99072.16
2023-04-25T16:16:46.875Z,99090.09
2023-04-25T16:19:50.395Z,99086.91
2023-04-25T16:22:52.241Z,99091.19
2023-04-25T16:25:55.013Z,99063.28
2023-04-25T16:29:06.204Z,99096.59
2023-04-25T16:32:08.536Z,99094.34
2023-04-25T16:35:10.446Z,99104.97
2023-04-25T16:38:12.248Z,99105.91
2023-04-25T16:41:14.566Z,99080.34
2023-04-25T16:44:16.750Z,99107.34
2023-04-25T16:47:20.338Z,99088.91
2023-04-25T16:50:23.507Z,99113.63
2023-04-25T16:53:25.720Z,99126.88
2023-04-25T16:56:27.613Z,99105.78
2023-04-25T16:59:29.579Z,99123.06
2023-04-25T17:02:31.573Z,99140.34
2023-04-25T17:05:34.443Z,99137.84
2023-04-25T17:08:36.360Z,99140.66
2023-04-25T17:11:40.110Z,99117.63
2023-04-25T17:14:43.122Z,99136.56
2023-04-25T17:17:45.033Z,99133.25
2023-04-25T17:20:47.416Z,99149.50
2023-04-25T17:23:49.901Z,99079.78
2023-04-25T17:26:52.344Z,99167.31
2023-04-25T17:29:54.188Z,99169.94
2023-04-25T17:32:56.574Z,99177.22
2023-04-25T17:35:58.900Z,99172.97
2023-04-25T17:39:00.756Z,99176.25
2023-04-25T17:42:02.683Z,99184.19
2023-04-25T17:45:06.093Z,99168.88
2023-04-25T17:48:08.615Z,99182.84
2023-04-25T17:51:10.741Z,99197.50
2023-04-25T17:54:12.803Z,99165.19
2023-04-25T17:57:14.861Z,99200.50
2023-04-25T18:00:18.736Z,99185.22
2023-04-25T18:03:20.926Z,99203.56
2023-04-25T18:06:22.984Z,99211.38
2023-04-25T18:09:25.958Z,99214.91
2023-04-25T18:12:28.270Z,99233.38
2023-04-25T18:15:30.341Z,99219.97
2023-04-25T18:18:35.098Z,99250.28
2023-04-25T18:21:39.047Z,99243.34
2023-04-25T18:24:41.615Z,99250.38
2023-04-25T18:27:43.875Z,99239.25
2023-04-25T18:30:47.248Z,99249.53
2023-04-25T18:33:49.693Z,99253.81
2023-04-25T18:36:52.872Z,99258.25
2023-04-25T18:39:55.291Z,99255.63
2023-04-25T18:42:59.277Z,99257.47
2023-04-25T18:46:01.305Z,99249.00
2023-04-25T18:49:04.413Z,99256.63
2023-04-25T18:52:12.191Z,99235.19
2023-04-25T18:55:14.225Z,99256.13
2023-04-25T18:58:16.869Z,99222.66
2023-04-25T19:01:19.400Z,99256.28
2023-04-25T19:04:22.188Z,99229.13
2023-04-25T19:07:25.502Z,99261.75
2023-04-25T19:10:29.085Z,99260.00
2023-04-25T19:13:31.885Z,99273.03
2023-04-25T19:16:39.161Z,99144.69
2023-04-25T19:19:41.121Z,99267.28
2023-04-25T19:22:43.445Z,99259.56
2023-04-25T19:25:45.587Z,99277.00
2023-04-25T19:28:47.474Z,99268.38
2023-04-25T19:31:49.322Z,99263.13
2023-04-25T19:34:51.293Z,99270.25
2023-04-25T19:37:53.714Z,99252.97
2023-04-25T19:40:56.072Z,99280.63
2023-04-25T19:44:09.380Z,99272.03
2023-04-25T19:47:11.689Z,99291.94
2023-04-25T19:50:13.968Z,99275.69
2023-04-25T19:53:15.994Z,99260.66
2023-04-25T19:56:18.125Z,99272.13
2023-04-25T19:59:20.220Z,99247.19
2023-04-25T20:02:22.365Z,99264.44
2023-04-25T20:05:24.139Z,99270.41
2023-04-25T20:08:26.154Z,99263.38
2023-04-25T20:11:29.229Z,99248.75
2023-04-25T20:14:33.005Z,99266.00
2023-04-25T20:17:35.279Z,99262.56
2023-04-25T20:20:37.415Z,99258.50
2023-04-25T20:23:39.391Z,99270.44
2023-04-25T20:26:41.278Z,99255.69
2023-04-25T20:29:43.146Z,99254.06
2023-04-25T20:32:47.287Z,99238.78
2023-04-25T20:35:49.316Z,99267.81
2023-04-25T20:38:51.309Z,99261.09
2023-04-25T20:41:53.404Z,99266.88
2023-04-25T20:44:56.010Z,99279.81
2023-04-25T20:47:58.683Z,99279.81
2023-04-25T20:51:00.672Z,99267.72
2023-04-25T20:54:05.182Z,99273.63
2023-04-25T20:57:07.060Z,99277.03
2023-04-25T21:00:18.594Z,99283.75
2023-04-25T21:03:21.045Z,99282.94
2023-04-25T21:06:22.912Z,99295.19
2023-04-25T21:09:27.809Z,99275.34
2023-04-25T21:12:29.697Z,99255.50
2023-04-25T21:15:31.997Z,99275.28
2023-04-25T21:18:34.880Z,99285.78
2023-04-25T21:21:36.716Z,99268.41
2023-04-25T21:24:39.327Z,99260.56
2023-04-25T21:27:41.114Z,99273.63
2023-04-25T21:30:48.627Z,99268.47
2023-04-25T21:33:50.641Z,99277.19
2023-04-25T21:36:52.421Z,99267.91
2023-04-25T21:39:55.865Z,99276.38
2023-04-25T21:42:57.685Z,99274.66
2023-04-25T21:46:21.604Z,99279.06
2023-04-25T21:49:23.481Z,99292.13
2023-04-25T21:52:25.658Z,99285.09
2023-04-25T21:55:27.865Z,99279.13
2023-04-25T21:58:29.649Z,99270.53
2023-04-25T22:01:31.483Z,99252.47
2023-04-25T22:04:34.298Z,99260.47
2023-04-25T22:07:36.320Z,99299.09
2023-04-25T22:10:39.840Z,99268.22
2023-04-25T22:13:41.812Z,99284.50
2023-04-25T22:16:43.574Z,99273.53
2023-04-25T22:19:45.469Z,99289.69
2023-04-25T22:22:47.283Z,99294.03
2023-04-25T22:25:49.030Z,99303.31
2023-04-25T22:28:51.726Z,99287.25
2023-04-25T22:31:53.938Z,99300.09
2023-04-25T22:34:56.498Z,99314.00
2023-04-25T22:37:58.300Z,99315.81
2023-04-25T22:41:00.097Z,99322.03
2023-04-25T22:44:02.241Z,99310.72
2023-04-25T22:47:04.094Z,99336.00
2023-04-25T22:50:08.591Z,99285.41
2023-04-25T22:53:10.512Z,99316.94
2023-04-25T22:56:13.547Z,99314.59
2023-04-25T22:59:16.167Z,99322.19
2023-04-25T23:02:18.548Z,99334.28
2023-04-25T23:05:20.958Z,99324.00
2023-04-25T23:08:22.909Z,99320.50
2023-04-25T23:11:24.959Z,99320.47
2023-04-25T23:14:26.756Z,99274.06
2023-04-25T23:17:29.313Z,99317.03
2023-04-25T23:20:32.193Z,99321.22
2023-04-25T23:23:34.097Z,99317.00
2023-04-25T23:26:35.873Z,99313.63
2023-04-25T23:29:37.836Z,99333.53
2023-04-25T23:32:40.679Z,99338.03
2023-04-25T23:35:42.457Z,99325.91
2023-04-25T23:38:44.266Z,99330.94
2023-04-25T23:41:46.116Z,99334.38
2023-04-25T23:44:47.986Z,99281.19
2023-04-25T23:47:49.936Z,99337.22
2023-04-25T23:50:51.875Z,99308.75
2023-04-25T23:53:53.605Z,99336.28
2023-04-25T23:56:55.510Z,99338.81
2023-04-25T23:59:57.336Z,99343.97
